sensor_id;sensor_type;location;lat;lon;timestamp;P1;durP1;ratioP1;P2;durP2;ratioP2
83630;SDS011;73593;52.134;5.426;2024-02-04T00:01:31;8.77;;;3.10;;
83630;SDS011;73593;52.134;5.426;2024-02-04T00:03:58;7.35;;;3.13;;
83630;SDS011;73593;52.134;5.426;2024-02-04T00:06:25;6.53;;;2.85;;
83630;SDS011;73593;52.134;5.426;2024-02-04T00:08:52;6.63;;;2.78;;
83630;SDS011;73593;52.134;5.426;2024-02-04T00:11:19;7.20;;;2.58;;
83630;SDS011;73593;52.134;5.426;2024-02-04T00:13:45;5.45;;;2.13;;
83630;SDS011;73593;52.134;5.426;2024-02-04T00:16:15;7.13;;;2.63;;
83630;SDS011;73593;52.134;5.426;2024-02-04T00:18:41;4.32;;;1.65;;
83630;SDS011;73593;52.134;5.426;2024-02-04T00:21:08;4.68;;;2.03;;
83630;SDS011;73593;52.134;5.426;2024-02-04T00:23:35;6.22;;;2.03;;
83630;SDS011;73593;52.134;5.426;2024-02-04T00:26:02;6.97;;;3.08;;
83630;SDS011;73593;52.134;5.426;2024-02-04T00:28:29;7.90;;;3.22;;
83630;SDS011;73593;52.134;5.426;2024-02-04T00:30:57;8.65;;;3.30;;
83630;SDS011;73593;52.134;5.426;2024-02-04T00:33:25;8.40;;;3.30;;
83630;SDS011;73593;52.134;5.426;2024-02-04T00:35:52;9.70;;;2.75;;
83630;SDS011;73593;52.134;5.426;2024-02-04T00:38:21;6.95;;;2.70;;
83630;SDS011;73593;52.134;5.426;2024-02-04T00:40:50;8.25;;;2.63;;
83630;SDS011;73593;52.134;5.426;2024-02-04T00:43:18;6.80;;;2.35;;
83630;SDS011;73593;52.134;5.426;2024-02-04T00:45:47;8.95;;;2.80;;
83630;SDS011;73593;52.134;5.426;2024-02-04T00:48:16;10.68;;;3.30;;
83630;SDS011;73593;52.134;5.426;2024-02-04T00:50:43;7.18;;;2.83;;
83630;SDS011;73593;52.134;5.426;2024-02-04T00:53:09;8.02;;;2.80;;
83630;SDS011;73593;52.134;5.426;2024-02-04T00:55:36;10.68;;;4.22;;
83630;SDS011;73593;52.134;5.426;2024-02-04T00:58:10;11.30;;;4.25;;
83630;SDS011;73593;52.134;5.426;2024-02-04T01:00:41;13.77;;;4.88;;
83630;SDS011;73593;52.134;5.426;2024-02-04T01:03:13;16.13;;;5.38;;
83630;SDS011;73593;52.134;5.426;2024-02-04T01:05:40;19.83;;;5.47;;
83630;SDS011;73593;52.134;5.426;2024-02-04T01:08:06;15.98;;;5.38;;
83630;SDS011;73593;52.134;5.426;2024-02-04T01:10:35;14.88;;;4.82;;
83630;SDS011;73593;52.134;5.426;2024-02-04T01:13:03;14.50;;;5.38;;
83630;SDS011;73593;52.134;5.426;2024-02-04T01:15:33;16.60;;;5.55;;
83630;SDS011;73593;52.134;5.426;2024-02-04T01:18:00;13.45;;;4.90;;
83630;SDS011;73593;52.134;5.426;2024-02-04T01:20:27;18.13;;;5.50;;
83630;SDS011;73593;52.134;5.426;2024-02-04T01:22:56;14.77;;;5.03;;
83630;SDS011;73593;52.134;5.426;2024-02-04T01:25:23;14.45;;;5.20;;
83630;SDS011;73593;52.134;5.426;2024-02-04T01:27:52;11.25;;;4.85;;
83630;SDS011;73593;52.134;5.426;2024-02-04T01:30:21;11.20;;;4.57;;
83630;SDS011;73593;52.134;5.426;2024-02-04T01:32:52;14.43;;;4.88;;
83630;SDS011;73593;52.134;5.426;2024-02-04T01:35:19;17.02;;;5.10;;
83630;SDS011;73593;52.134;5.426;2024-02-04T01:37:48;16.35;;;5.50;;
83630;SDS011;73593;52.134;5.426;2024-02-04T01:40:20;14.45;;;4.75;;
83630;SDS011;73593;52.134;5.426;2024-02-04T01:42:48;16.30;;;5.03;;
83630;SDS011;73593;52.134;5.426;2024-02-04T01:45:15;13.30;;;4.60;;
83630;SDS011;73593;52.134;5.426;2024-02-04T01:47:42;13.63;;;4.90;;
83630;SDS011;73593;52.134;5.426;2024-02-04T01:50:10;16.60;;;4.63;;
83630;SDS011;73593;52.134;5.426;2024-02-04T01:52:39;11.85;;;4.03;;
83630;SDS011;73593;52.134;5.426;2024-02-04T01:55:10;11.38;;;4.00;;
83630;SDS011;73593;52.134;5.426;2024-02-04T01:57:37;11.43;;;4.20;;
83630;SDS011;73593;52.134;5.426;2024-02-04T02:00:09;9.57;;;3.42;;
83630;SDS011;73593;52.134;5.426;2024-02-04T02:02:40;11.85;;;4.35;;
83630;SDS011;73593;52.134;5.426;2024-02-04T02:05:10;10.90;;;4.22;;
83630;SDS011;73593;52.134;5.426;2024-02-04T02:07:40;16.50;;;4.63;;
83630;SDS011;73593;52.134;5.426;2024-02-04T02:10:07;13.32;;;4.82;;
83630;SDS011;73593;52.134;5.426;2024-02-04T02:12:45;8.18;;;4.15;;
83630;SDS011;73593;52.134;5.426;2024-02-04T02:15:32;12.13;;;4.55;;
83630;SDS011;73593;52.134;5.426;2024-02-04T02:23:30;15.10;;;5.18;;
83630;SDS011;73593;52.134;5.426;2024-02-04T02:26:00;13.45;;;4.88;;
83630;SDS011;73593;52.134;5.426;2024-02-04T02:28:30;15.38;;;4.65;;
83630;SDS011;73593;52.134;5.426;2024-02-04T02:30:57;14.55;;;4.13;;
83630;SDS011;73593;52.134;5.426;2024-02-04T02:33:23;12.80;;;4.68;;
83630;SDS011;73593;52.134;5.426;2024-02-04T02:35:51;10.38;;;4.30;;
83630;SDS011;73593;52.134;5.426;2024-02-04T02:40:59;13.85;;;4.45;;
83630;SDS011;73593;52.134;5.426;2024-02-04T02:46:05;11.82;;;4.53;;
83630;SDS011;73593;52.134;5.426;2024-02-04T02:48:36;16.08;;;4.10;;
83630;SDS011;73593;52.134;5.426;2024-02-04T02:51:05;10.05;;;3.67;;
83630;SDS011;73593;52.134;5.426;2024-02-04T02:53:32;15.55;;;4.22;;
83630;SDS011;73593;52.134;5.426;2024-02-04T02:55:59;12.63;;;4.05;;
83630;SDS011;73593;52.134;5.426;2024-02-04T02:58:25;11.63;;;4.13;;
83630;SDS011;73593;52.134;5.426;2024-02-04T03:00:52;14.40;;;4.18;;
83630;SDS011;73593;52.134;5.426;2024-02-04T03:03:19;11.30;;;4.13;;
83630;SDS011;73593;52.134;5.426;2024-02-04T03:05:48;12.32;;;4.22;;
83630;SDS011;73593;52.134;5.426;2024-02-04T03:08:15;13.70;;;4.45;;
83630;SDS011;73593;52.134;5.426;2024-02-04T03:10:44;15.82;;;5.65;;
83630;SDS011;73593;52.134;5.426;2024-02-04T03:13:10;15.50;;;4.95;;
83630;SDS011;73593;52.134;5.426;2024-02-04T03:15:39;12.88;;;4.97;;
83630;SDS011;73593;52.134;5.426;2024-02-04T03:18:09;16.10;;;5.82;;
83630;SDS011;73593;52.134;5.426;2024-02-04T03:20:38;13.45;;;5.25;;
83630;SDS011;73593;52.134;5.426;2024-02-04T03:23:06;15.93;;;5.80;;
83630;SDS011;73593;52.134;5.426;2024-02-04T03:25:35;20.05;;;5.05;;
83630;SDS011;73593;52.134;5.426;2024-02-04T03:28:02;10.88;;;4.80;;
83630;SDS011;73593;52.134;5.426;2024-02-04T03:30:32;14.00;;;4.07;;
83630;SDS011;73593;52.134;5.426;2024-02-04T03:32:58;11.23;;;3.70;;
83630;SDS011;73593;52.134;5.426;2024-02-04T03:35:26;14.82;;;4.35;;
83630;SDS011;73593;52.134;5.426;2024-02-04T03:37:55;11.93;;;4.32;;
83630;SDS011;73593;52.134;5.426;2024-02-04T03:40:39;10.63;;;2.78;;
83630;SDS011;73593;52.134;5.426;2024-02-04T03:43:09;13.18;;;3.15;;
83630;SDS011;73593;52.134;5.426;2024-02-04T03:45:38;12.40;;;3.70;;
83630;SDS011;73593;52.134;5.426;2024-02-04T03:48:07;11.20;;;2.88;;
83630;SDS011;73593;52.134;5.426;2024-02-04T03:50:36;8.70;;;2.33;;
83630;SDS011;73593;52.134;5.426;2024-02-04T03:53:05;8.68;;;2.03;;
83630;SDS011;73593;52.134;5.426;2024-02-04T03:55:34;11.32;;;2.63;;
83630;SDS011;73593;52.134;5.426;2024-02-04T03:58:03;6.57;;;1.65;;
83630;SDS011;73593;52.134;5.426;2024-02-04T04:00:30;9.52;;;2.28;;
83630;SDS011;73593;52.134;5.426;2024-02-04T04:02:59;6.78;;;1.67;;
83630;SDS011;73593;52.134;5.426;2024-02-04T04:05:28;7.28;;;1.77;;
83630;SDS011;73593;52.134;5.426;2024-02-04T04:07:55;9.70;;;1.50;;
83630;SDS011;73593;52.134;5.426;2024-02-04T04:10:26;9.32;;;2.15;;
83630;SDS011;73593;52.134;5.426;2024-02-04T04:12:55;8.75;;;1.90;;
83630;SDS011;73593;52.134;5.426;2024-02-04T04:15:22;9.60;;;1.80;;
83630;SDS011;73593;52.134;5.426;2024-02-04T04:17:51;7.85;;;2.10;;
83630;SDS011;73593;52.134;5.426;2024-02-04T04:20:20;10.40;;;2.17;;
83630;SDS011;73593;52.134;5.426;2024-02-04T04:22:49;9.68;;;2.15;;
83630;SDS011;73593;52.134;5.426;2024-02-04T04:25:18;8.00;;;2.15;;
83630;SDS011;73593;52.134;5.426;2024-02-04T04:27:50;7.57;;;2.30;;
83630;SDS011;73593;52.134;5.426;2024-02-04T04:30:21;6.75;;;1.92;;
83630;SDS011;73593;52.134;5.426;2024-02-04T04:32:51;7.78;;;1.92;;
83630;SDS011;73593;52.134;5.426;2024-02-04T04:35:21;7.97;;;2.65;;
83630;SDS011;73593;52.134;5.426;2024-02-04T04:37:50;6.00;;;2.08;;
83630;SDS011;73593;52.134;5.426;2024-02-04T04:40:19;8.45;;;2.60;;
83630;SDS011;73593;52.134;5.426;2024-02-04T04:42:45;11.43;;;2.50;;
83630;SDS011;73593;52.134;5.426;2024-02-04T04:45:12;9.07;;;2.35;;
83630;SDS011;73593;52.134;5.426;2024-02-04T04:47:42;9.85;;;2.40;;
83630;SDS011;73593;52.134;5.426;2024-02-04T04:50:09;9.07;;;2.60;;
83630;SDS011;73593;52.134;5.426;2024-02-04T04:52:36;7.00;;;2.25;;
83630;SDS011;73593;52.134;5.426;2024-02-04T04:55:02;8.05;;;2.30;;
83630;SDS011;73593;52.134;5.426;2024-02-04T04:57:29;8.85;;;2.40;;
83630;SDS011;73593;52.134;5.426;2024-02-04T04:59:56;9.20;;;2.17;;
83630;SDS011;73593;52.134;5.426;2024-02-04T05:02:26;10.95;;;2.78;;
83630;SDS011;73593;52.134;5.426;2024-02-04T05:04:56;6.80;;;2.17;;
83630;SDS011;73593;52.134;5.426;2024-02-04T05:07:24;6.82;;;2.10;;
83630;SDS011;73593;52.134;5.426;2024-02-04T05:09:52;10.90;;;2.60;;
83630;SDS011;73593;52.134;5.426;2024-02-04T05:12:24;7.65;;;2.13;;
83630;SDS011;73593;52.134;5.426;2024-02-04T05:14:50;8.25;;;1.65;;
83630;SDS011;73593;52.134;5.426;2024-02-04T05:17:17;7.55;;;2.25;;
83630;SDS011;73593;52.134;5.426;2024-02-04T05:19:44;9.20;;;2.03;;
83630;SDS011;73593;52.134;5.426;2024-02-04T05:22:13;5.97;;;2.10;;
83630;SDS011;73593;52.134;5.426;2024-02-04T05:24:40;9.02;;;2.30;;
83630;SDS011;73593;52.134;5.426;2024-02-04T05:27:10;8.15;;;2.33;;
83630;SDS011;73593;52.134;5.426;2024-02-04T05:29:39;7.70;;;3.72;;
83630;SDS011;73593;52.134;5.426;2024-02-04T05:32:06;9.27;;;2.70;;
83630;SDS011;73593;52.134;5.426;2024-02-04T05:34:33;9.98;;;2.95;;
83630;SDS011;73593;52.134;5.426;2024-02-04T05:37:03;11.63;;;3.60;;
83630;SDS011;73593;52.134;5.426;2024-02-04T05:39:32;9.88;;;3.22;;
83630;SDS011;73593;52.134;5.426;2024-02-04T05:42:04;10.68;;;3.15;;
83630;SDS011;73593;52.134;5.426;2024-02-04T05:44:30;7.85;;;2.63;;
83630;SDS011;73593;52.134;5.426;2024-02-04T05:46:57;10.30;;;3.15;;
83630;SDS011;73593;52.134;5.426;2024-02-04T05:49:26;13.38;;;3.00;;
83630;SDS011;73593;52.134;5.426;2024-02-04T05:51:55;14.23;;;3.38;;
83630;SDS011;73593;52.134;5.426;2024-02-04T05:54:21;9.80;;;2.50;;
83630;SDS011;73593;52.134;5.426;2024-02-04T05:56:55;10.15;;;2.95;;
83630;SDS011;73593;52.134;5.426;2024-02-04T05:59:24;8.77;;;2.53;;
83630;SDS011;73593;52.134;5.426;2024-02-04T06:01:53;9.55;;;2.47;;
83630;SDS011;73593;52.134;5.426;2024-02-04T06:04:22;12.27;;;3.08;;
83630;SDS011;73593;52.134;5.426;2024-02-04T06:06:49;9.80;;;3.08;;
83630;SDS011;73593;52.134;5.426;2024-02-04T06:09:16;7.30;;;2.22;;
83630;SDS011;73593;52.134;5.426;2024-02-04T06:11:45;9.15;;;2.50;;
83630;SDS011;73593;52.134;5.426;2024-02-04T06:14:16;8.98;;;2.45;;
83630;SDS011;73593;52.134;5.426;2024-02-04T06:16:45;7.93;;;2.55;;
83630;SDS011;73593;52.134;5.426;2024-02-04T06:19:12;9.73;;;2.95;;
83630;SDS011;73593;52.134;5.426;2024-02-04T06:21:40;11.30;;;3.05;;
83630;SDS011;73593;52.134;5.426;2024-02-04T06:24:07;12.65;;;3.20;;
83630;SDS011;73593;52.134;5.426;2024-02-04T06:26:38;7.32;;;3.45;;
83630;SDS011;73593;52.134;5.426;2024-02-04T06:29:10;9.73;;;3.53;;
83630;SDS011;73593;52.134;5.426;2024-02-04T06:31:36;15.07;;;3.42;;
83630;SDS011;73593;52.134;5.426;2024-02-04T06:34:03;9.60;;;3.05;;
83630;SDS011;73593;52.134;5.426;2024-02-04T06:36:30;13.30;;;4.30;;
83630;SDS011;73593;52.134;5.426;2024-02-04T06:38:56;10.63;;;3.35;;
83630;SDS011;73593;52.134;5.426;2024-02-04T06:41:23;13.15;;;4.00;;
83630;SDS011;73593;52.134;5.426;2024-02-04T06:43:52;9.30;;;3.92;;
83630;SDS011;73593;52.134;5.426;2024-02-04T06:46:28;11.25;;;4.03;;
83630;SDS011;73593;52.134;5.426;2024-02-04T06:48:57;12.25;;;4.47;;
83630;SDS011;73593;52.134;5.426;2024-02-04T06:51:24;12.20;;;4.35;;
83630;SDS011;73593;52.134;5.426;2024-02-04T06:53:50;13.57;;;4.32;;
83630;SDS011;73593;52.134;5.426;2024-02-04T06:56:17;17.25;;;5.15;;
83630;SDS011;73593;52.134;5.426;2024-02-04T06:58:44;12.88;;;4.70;;
83630;SDS011;73593;52.134;5.426;2024-02-04T07:01:11;15.15;;;5.45;;
83630;SDS011;73593;52.134;5.426;2024-02-04T07:03:38;14.38;;;5.15;;
83630;SDS011;73593;52.134;5.426;2024-02-04T07:06:05;14.52;;;5.15;;
83630;SDS011;73593;52.134;5.426;2024-02-04T07:08:35;13.68;;;4.53;;
83630;SDS011;73593;52.134;5.426;2024-02-04T07:11:06;14.45;;;5.03;;
83630;SDS011;73593;52.134;5.426;2024-02-04T07:13:33;11.88;;;5.35;;
83630;SDS011;73593;52.134;5.426;2024-02-04T07:16:02;15.35;;;5.72;;
83630;SDS011;73593;52.134;5.426;2024-02-04T07:18:29;11.77;;;5.30;;
83630;SDS011;73593;52.134;5.426;2024-02-04T07:20:56;11.90;;;4.72;;
83630;SDS011;73593;52.134;5.426;2024-02-04T07:23:25;11.10;;;4.30;;
83630;SDS011;73593;52.134;5.426;2024-02-04T07:25:52;10.07;;;4.75;;
83630;SDS011;73593;52.134;5.426;2024-02-04T07:28:19;14.38;;;5.03;;
83630;SDS011;73593;52.134;5.426;2024-02-04T07:30:45;16.02;;;4.85;;
83630;SDS011;73593;52.134;5.426;2024-02-04T07:33:14;16.02;;;5.07;;
83630;SDS011;73593;52.134;5.426;2024-02-04T07:35:41;14.80;;;5.75;;
83630;SDS011;73593;52.134;5.426;2024-02-04T07:38:10;14.60;;;5.38;;
83630;SDS011;73593;52.134;5.426;2024-02-04T07:40:37;13.52;;;5.65;;
83630;SDS011;73593;52.134;5.426;2024-02-04T07:43:06;14.90;;;4.72;;
83630;SDS011;73593;52.134;5.426;2024-02-04T07:45:32;9.77;;;4.47;;
83630;SDS011;73593;52.134;5.426;2024-02-04T07:48:01;11.02;;;5.05;;
83630;SDS011;73593;52.134;5.426;2024-02-04T07:50:28;9.13;;;4.22;;
83630;SDS011;73593;52.134;5.426;2024-02-04T07:52:55;12.82;;;4.32;;
83630;SDS011;73593;52.134;5.426;2024-02-04T07:55:24;12.95;;;4.15;;
83630;SDS011;73593;52.134;5.426;2024-02-04T07:57:51;10.00;;;4.13;;
83630;SDS011;73593;52.134;5.426;2024-02-04T08:00:19;11.85;;;3.92;;
83630;SDS011;73593;52.134;5.426;2024-02-04T08:02:48;8.60;;;3.80;;
83630;SDS011;73593;52.134;5.426;2024-02-04T08:05:17;10.57;;;2.67;;
83630;SDS011;73593;52.134;5.426;2024-02-04T08:07:44;7.47;;;2.65;;
83630;SDS011;73593;52.134;5.426;2024-02-04T08:10:13;9.05;;;2.58;;
83630;SDS011;73593;52.134;5.426;2024-02-04T08:12:42;6.78;;;2.58;;
83630;SDS011;73593;52.134;5.426;2024-02-04T08:15:09;7.10;;;2.47;;
83630;SDS011;73593;52.134;5.426;2024-02-04T08:17:38;8.07;;;2.72;;
83630;SDS011;73593;52.134;5.426;2024-02-04T08:20:05;4.90;;;1.90;;
83630;SDS011;73593;52.134;5.426;2024-02-04T08:22:32;6.53;;;2.10;;
83630;SDS011;73593;52.134;5.426;2024-02-04T08:25:01;9.52;;;2.20;;
83630;SDS011;73593;52.134;5.426;2024-02-04T08:29:55;5.18;;;1.90;;
83630;SDS011;73593;52.134;5.426;2024-02-04T08:32:24;5.78;;;1.95;;
83630;SDS011;73593;52.134;5.426;2024-02-04T08:34:51;7.30;;;1.92;;
83630;SDS011;73593;52.134;5.426;2024-02-04T08:37:20;5.78;;;1.75;;
83630;SDS011;73593;52.134;5.426;2024-02-04T08:39:53;6.05;;;1.77;;
83630;SDS011;73593;52.134;5.426;2024-02-04T08:42:22;5.30;;;1.75;;
83630;SDS011;73593;52.134;5.426;2024-02-04T08:44:49;6.70;;;1.58;;
83630;SDS011;73593;52.134;5.426;2024-02-04T08:47:15;7.03;;;1.98;;
83630;SDS011;73593;52.134;5.426;2024-02-04T08:49:45;7.28;;;1.73;;
83630;SDS011;73593;52.134;5.426;2024-02-04T08:52:12;6.55;;;1.80;;
83630;SDS011;73593;52.134;5.426;2024-02-04T08:54:39;7.15;;;1.92;;
83630;SDS011;73593;52.134;5.426;2024-02-04T08:57:06;8.43;;;2.20;;
83630;SDS011;73593;52.134;5.426;2024-02-04T08:59:36;5.35;;;1.75;;
83630;SDS011;73593;52.134;5.426;2024-02-04T09:02:05;6.95;;;2.10;;
83630;SDS011;73593;52.134;5.426;2024-02-04T09:04:36;7.63;;;2.70;;
83630;SDS011;73593;52.134;5.426;2024-02-04T09:07:07;10.30;;;2.90;;
83630;SDS011;73593;52.134;5.426;2024-02-04T09:09:34;9.23;;;3.55;;
83630;SDS011;73593;52.134;5.426;2024-02-04T09:12:03;7.03;;;3.53;;
83630;SDS011;73593;52.134;5.426;2024-02-04T09:14:33;6.95;;;3.38;;
83630;SDS011;73593;52.134;5.426;2024-02-04T09:17:02;9.80;;;3.13;;
83630;SDS011;73593;52.134;5.426;2024-02-04T09:19:34;9.68;;;3.45;;
83630;SDS011;73593;52.134;5.426;2024-02-04T09:22:07;9.23;;;3.50;;
83630;SDS011;73593;52.134;5.426;2024-02-04T09:24:34;9.18;;;3.15;;
83630;SDS011;73593;52.134;5.426;2024-02-04T09:27:04;10.52;;;3.08;;
83630;SDS011;73593;52.134;5.426;2024-02-04T09:29:31;9.48;;;3.35;;
83630;SDS011;73593;52.134;5.426;2024-02-04T09:32:00;8.05;;;2.65;;
83630;SDS011;73593;52.134;5.426;2024-02-04T09:34:27;7.10;;;2.53;;
83630;SDS011;73593;52.134;5.426;2024-02-04T09:36:54;6.68;;;2.42;;
83630;SDS011;73593;52.134;5.426;2024-02-04T09:39:20;8.00;;;2.20;;
83630;SDS011;73593;52.134;5.426;2024-02-04T09:41:47;5.57;;;2.10;;
83630;SDS011;73593;52.134;5.426;2024-02-04T09:44:16;7.18;;;2.00;;
83630;SDS011;73593;52.134;5.426;2024-02-04T09:46:44;5.97;;;1.73;;
83630;SDS011;73593;52.134;5.426;2024-02-04T09:49:14;5.47;;;1.67;;
83630;SDS011;73593;52.134;5.426;2024-02-04T09:51:41;6.18;;;1.77;;
83630;SDS011;73593;52.134;5.426;2024-02-04T09:54:09;4.22;;;1.63;;
83630;SDS011;73593;52.134;5.426;2024-02-04T09:56:37;7.88;;;1.80;;
83630;SDS011;73593;52.134;5.426;2024-02-04T09:59:09;7.53;;;1.90;;
83630;SDS011;73593;52.134;5.426;2024-02-04T10:01:38;4.25;;;1.40;;
83630;SDS011;73593;52.134;5.426;2024-02-04T10:04:11;6.65;;;1.70;;
83630;SDS011;73593;52.134;5.426;2024-02-04T10:06:37;5.85;;;1.58;;
83630;SDS011;73593;52.134;5.426;2024-02-04T10:09:05;4.13;;;1.02;;
83630;SDS011;73593;52.134;5.426;2024-02-04T10:11:34;4.18;;;1.30;;
83630;SDS011;73593;52.134;5.426;2024-02-04T10:14:01;5.30;;;1.40;;
83630;SDS011;73593;52.134;5.426;2024-02-04T10:16:33;3.67;;;1.40;;
83630;SDS011;73593;52.134;5.426;2024-02-04T10:19:06;4.45;;;1.20;;
83630;SDS011;73593;52.134;5.426;2024-02-04T10:21:33;5.32;;;1.63;;
83630;SDS011;73593;52.134;5.426;2024-02-04T10:24:00;4.78;;;1.25;;
83630;SDS011;73593;52.134;5.426;2024-02-04T10:26:29;3.92;;;1.13;;
83630;SDS011;73593;52.134;5.426;2024-02-04T10:29:00;5.40;;;1.13;;
83630;SDS011;73593;52.134;5.426;2024-02-04T10:31:27;3.65;;;1.13;;
83630;SDS011;73593;52.134;5.426;2024-02-04T10:36:32;3.72;;;1.42;;
83630;SDS011;73593;52.134;5.426;2024-02-04T10:39:03;4.22;;;0.90;;
83630;SDS011;73593;52.134;5.426;2024-02-04T10:41:33;2.22;;;0.93;;
83630;SDS011;73593;52.134;5.426;2024-02-04T10:44:01;3.38;;;1.40;;
83630;SDS011;73593;52.134;5.426;2024-02-04T10:46:30;2.85;;;0.60;;
83630;SDS011;73593;52.134;5.426;2024-02-04T10:49:04;3.75;;;0.75;;
83630;SDS011;73593;52.134;5.426;2024-02-04T10:51:39;5.72;;;0.82;;
83630;SDS011;73593;52.134;5.426;2024-02-04T10:54:11;2.70;;;0.60;;
83630;SDS011;73593;52.134;5.426;2024-02-04T10:56:43;2.20;;;0.60;;
83630;SDS011;73593;52.134;5.426;2024-02-04T10:59:11;3.08;;;0.70;;
83630;SDS011;73593;52.134;5.426;2024-02-04T11:01:45;4.28;;;0.63;;
83630;SDS011;73593;52.134;5.426;2024-02-04T11:04:15;2.05;;;0.60;;
83630;SDS011;73593;52.134;5.426;2024-02-04T11:06:43;4.68;;;0.57;;
83630;SDS011;73593;52.134;5.426;2024-02-04T11:09:15;1.70;;;0.63;;
83630;SDS011;73593;52.134;5.426;2024-02-04T11:11:43;2.15;;;0.60;;
83630;SDS011;73593;52.134;5.426;2024-02-04T11:14:15;3.05;;;0.60;;
83630;SDS011;73593;52.134;5.426;2024-02-04T11:19:42;4.57;;;0.95;;
83630;SDS011;73593;52.134;5.426;2024-02-04T11:27:54;2.20;;;0.80;;
83630;SDS011;73593;52.134;5.426;2024-02-04T11:30:22;1.65;;;0.52;;
83630;SDS011;73593;52.134;5.426;2024-02-04T11:32:49;2.28;;;0.70;;
83630;SDS011;73593;52.134;5.426;2024-02-04T11:35:20;2.13;;;0.70;;
83630;SDS011;73593;52.134;5.426;2024-02-04T11:37:49;3.83;;;1.52;;
83630;SDS011;73593;52.134;5.426;2024-02-04T11:40:16;4.07;;;0.82;;
83630;SDS011;73593;52.134;5.426;2024-02-04T11:42:45;4.03;;;0.80;;
83630;SDS011;73593;52.134;5.426;2024-02-04T11:45:13;2.90;;;1.02;;
83630;SDS011;73593;52.134;5.426;2024-02-04T11:47:40;6.20;;;1.20;;
83630;SDS011;73593;52.134;5.426;2024-02-04T11:50:13;3.40;;;1.20;;
83630;SDS011;73593;52.134;5.426;2024-02-04T11:53:04;8.23;;;1.88;;
83630;SDS011;73593;52.134;5.426;2024-02-04T11:55:36;5.93;;;1.90;;
83630;SDS011;73593;52.134;5.426;2024-02-04T11:58:08;7.13;;;1.60;;
83630;SDS011;73593;52.134;5.426;2024-02-04T12:00:41;4.35;;;1.13;;
83630;SDS011;73593;52.134;5.426;2024-02-04T12:03:09;5.10;;;1.40;;
83630;SDS011;73593;52.134;5.426;2024-02-04T12:05:36;5.35;;;1.60;;
83630;SDS011;73593;52.134;5.426;2024-02-04T12:08:06;4.30;;;1.30;;
83630;SDS011;73593;52.134;5.426;2024-02-04T12:10:40;6.57;;;1.70;;
83630;SDS011;73593;52.134;5.426;2024-02-04T12:13:07;5.15;;;1.80;;
83630;SDS011;73593;52.134;5.426;2024-02-04T12:15:36;5.93;;;1.45;;
83630;SDS011;73593;52.134;5.426;2024-02-04T12:18:10;6.78;;;1.42;;
83630;SDS011;73593;52.134;5.426;2024-02-04T12:20:43;5.25;;;1.70;;
83630;SDS011;73593;52.134;5.426;2024-02-04T12:26:08;8.10;;;1.50;;
83630;SDS011;73593;52.134;5.426;2024-02-04T12:28:34;6.53;;;1.58;;
83630;SDS011;73593;52.134;5.426;2024-02-04T12:31:01;6.50;;;1.48;;
83630;SDS011;73593;52.134;5.426;2024-02-04T12:33:27;4.25;;;1.30;;
83630;SDS011;73593;52.134;5.426;2024-02-04T12:35:54;3.90;;;1.20;;
83630;SDS011;73593;52.134;5.426;2024-02-04T12:38:25;3.85;;;1.23;;
83630;SDS011;73593;52.134;5.426;2024-02-04T12:40:52;10.32;;;1.55;;
83630;SDS011;73593;52.134;5.426;2024-02-04T12:43:30;6.28;;;1.23;;
83630;SDS011;73593;52.134;5.426;2024-02-04T12:45:56;3.67;;;1.15;;
83630;SDS011;73593;52.134;5.426;2024-02-04T12:48:25;2.80;;;1.05;;
83630;SDS011;73593;52.134;5.426;2024-02-04T12:50:54;8.60;;;1.27;;
83630;SDS011;73593;52.134;5.426;2024-02-04T12:53:23;5.25;;;1.52;;
83630;SDS011;73593;52.134;5.426;2024-02-04T12:55:57;4.72;;;1.25;;
83630;SDS011;73593;52.134;5.426;2024-02-04T12:58:25;5.03;;;0.95;;
83630;SDS011;73593;52.134;5.426;2024-02-04T13:03:28;6.57;;;1.48;;
83630;SDS011;73593;52.134;5.426;2024-02-04T13:05:58;6.43;;;1.17;;
83630;SDS011;73593;52.134;5.426;2024-02-04T13:08:25;3.63;;;1.20;;
83630;SDS011;73593;52.134;5.426;2024-02-04T13:10:56;4.32;;;0.93;;
83630;SDS011;73593;52.134;5.426;2024-02-04T13:15:58;2.55;;;1.02;;
83630;SDS011;73593;52.134;5.426;2024-02-04T13:18:24;5.53;;;1.13;;
83630;SDS011;73593;52.134;5.426;2024-02-04T13:20:51;3.30;;;1.02;;
83630;SDS011;73593;52.134;5.426;2024-02-04T13:23:18;7.20;;;1.02;;
83630;SDS011;73593;52.134;5.426;2024-02-04T13:25:45;6.78;;;1.75;;
83630;SDS011;73593;52.134;5.426;2024-02-04T13:28:14;7.10;;;1.50;;
83630;SDS011;73593;52.134;5.426;2024-02-04T13:30:47;4.18;;;0.95;;
83630;SDS011;73593;52.134;5.426;2024-02-04T13:33:16;3.15;;;1.00;;
83630;SDS011;73593;52.134;5.426;2024-02-04T13:35:45;4.28;;;1.13;;
83630;SDS011;73593;52.134;5.426;2024-02-04T13:38:15;4.63;;;1.10;;
83630;SDS011;73593;52.134;5.426;2024-02-04T13:40:44;4.30;;;1.40;;
83630;SDS011;73593;52.134;5.426;2024-02-04T13:43:11;4.40;;;0.98;;
83630;SDS011;73593;52.134;5.426;2024-02-04T13:45:37;4.97;;;1.02;;
83630;SDS011;73593;52.134;5.426;2024-02-04T13:48:04;2.90;;;0.93;;
83630;SDS011;73593;52.134;5.426;2024-02-04T13:50:31;3.65;;;1.05;;
83630;SDS011;73593;52.134;5.426;2024-02-04T13:52:58;6.03;;;1.20;;
83630;SDS011;73593;52.134;5.426;2024-02-04T13:55:25;6.82;;;1.70;;
83630;SDS011;73593;52.134;5.426;2024-02-04T13:57:51;5.88;;;1.35;;
83630;SDS011;73593;52.134;5.426;2024-02-04T14:00:21;5.70;;;1.50;;
83630;SDS011;73593;52.134;5.426;2024-02-04T14:02:50;5.05;;;1.50;;
83630;SDS011;73593;52.134;5.426;2024-02-04T14:05:16;9.07;;;1.90;;
83630;SDS011;73593;52.134;5.426;2024-02-04T14:07:43;6.95;;;2.38;;
83630;SDS011;73593;52.134;5.426;2024-02-04T14:10:10;8.15;;;2.30;;
83630;SDS011;73593;52.134;5.426;2024-02-04T14:12:41;7.00;;;2.00;;
83630;SDS011;73593;52.134;5.426;2024-02-04T14:15:14;8.55;;;2.10;;
83630;SDS011;73593;52.134;5.426;2024-02-04T14:17:43;6.05;;;2.00;;
83630;SDS011;73593;52.134;5.426;2024-02-04T14:20:12;7.53;;;2.30;;
83630;SDS011;73593;52.134;5.426;2024-02-04T14:22:40;10.90;;;2.63;;
83630;SDS011;73593;52.134;5.426;2024-02-04T14:25:09;7.93;;;2.05;;
83630;SDS011;73593;52.134;5.426;2024-02-04T14:27:38;10.18;;;2.40;;
83630;SDS011;73593;52.134;5.426;2024-02-04T14:30:05;8.10;;;2.35;;
83630;SDS011;73593;52.134;5.426;2024-02-04T14:32:33;9.98;;;2.58;;
83630;SDS011;73593;52.134;5.426;2024-02-04T14:35:00;6.28;;;2.30;;
83630;SDS011;73593;52.134;5.426;2024-02-04T14:37:27;9.55;;;2.42;;
83630;SDS011;73593;52.134;5.426;2024-02-04T14:39:54;9.20;;;3.00;;
83630;SDS011;73593;52.134;5.426;2024-02-04T14:42:23;7.38;;;2.15;;
83630;SDS011;73593;52.134;5.426;2024-02-04T14:44:50;9.32;;;2.00;;
83630;SDS011;73593;52.134;5.426;2024-02-04T14:47:16;5.85;;;2.53;;
83630;SDS011;73593;52.134;5.426;2024-02-04T14:49:45;8.05;;;1.95;;
83630;SDS011;73593;52.134;5.426;2024-02-04T14:52:15;5.65;;;1.80;;
83630;SDS011;73593;52.134;5.426;2024-02-04T14:54:44;6.35;;;1.85;;
83630;SDS011;73593;52.134;5.426;2024-02-04T14:57:11;6.22;;;1.85;;
83630;SDS011;73593;52.134;5.426;2024-02-04T14:59:40;8.32;;;1.67;;
83630;SDS011;73593;52.134;5.426;2024-02-04T15:02:07;9.10;;;1.92;;
83630;SDS011;73593;52.134;5.426;2024-02-04T15:04:34;8.27;;;1.73;;
83630;SDS011;73593;52.134;5.426;2024-02-04T15:07:06;6.80;;;1.98;;
83630;SDS011;73593;52.134;5.426;2024-02-04T15:09:33;7.90;;;2.38;;
83630;SDS011;73593;52.134;5.426;2024-02-04T15:12:00;6.47;;;2.40;;
83630;SDS011;73593;52.134;5.426;2024-02-04T15:14:29;7.22;;;1.80;;
83630;SDS011;73593;52.134;5.426;2024-02-04T15:16:56;8.25;;;2.30;;
83630;SDS011;73593;52.134;5.426;2024-02-04T15:19:24;8.98;;;1.70;;
83630;SDS011;73593;52.134;5.426;2024-02-04T15:21:55;9.13;;;1.90;;
83630;SDS011;73593;52.134;5.426;2024-02-04T15:24:24;6.95;;;1.83;;